sensor_id;sensor_type;location;lat;lon;timestamp;P1;durP1;ratioP1;P2;durP2;ratioP2
70975;SDS011;58635;51.198;6.010;2023-04-15T00:01:23;8.95;;;3.08;;
70975;SDS011;58635;51.198;6.010;2023-04-15T00:03:52;8.40;;;3.30;;
70975;SDS011;58635;51.198;6.010;2023-04-15T00:06:19;6.18;;;3.22;;
70975;SDS011;58635;51.198;6.010;2023-04-15T00:08:45;6.53;;;3.30;;
70975;SDS011;58635;51.198;6.010;2023-04-15T00:11:11;8.75;;;3.80;;
70975;SDS011;58635;51.198;6.010;2023-04-15T00:13:37;7.07;;;3.55;;
70975;SDS011;58635;51.198;6.010;2023-04-15T00:16:04;6.75;;;3.30;;
70975;SDS011;58635;51.198;6.010;2023-04-15T00:18:30;7.43;;;3.40;;
70975;SDS011;58635;51.198;6.010;2023-04-15T00:20:56;4.70;;;2.53;;
70975;SDS011;58635;51.198;6.010;2023-04-15T00:23:22;8.52;;;3.50;;
70975;SDS011;58635;51.198;6.010;2023-04-15T00:25:48;7.50;;;3.60;;
70975;SDS011;58635;51.198;6.010;2023-04-15T00:28:13;7.85;;;3.50;;
70975;SDS011;58635;51.198;6.010;2023-04-15T00:30:39;7.07;;;3.45;;
70975;SDS011;58635;51.198;6.010;2023-04-15T00:33:04;8.30;;;3.60;;
70975;SDS011;58635;51.198;6.010;2023-04-15T00:35:30;8.88;;;3.83;;
70975;SDS011;58635;51.198;6.010;2023-04-15T00:37:57;7.70;;;3.92;;
70975;SDS011;58635;51.198;6.010;2023-04-15T00:40:22;7.20;;;3.75;;
70975;SDS011;58635;51.198;6.010;2023-04-15T00:42:48;7.85;;;4.00;;
70975;SDS011;58635;51.198;6.010;2023-04-15T00:45:14;6.72;;;3.58;;
70975;SDS011;58635;51.198;6.010;2023-04-15T00:47:40;7.28;;;3.22;;
70975;SDS011;58635;51.198;6.010;2023-04-15T00:50:08;5.95;;;3.17;;
70975;SDS011;58635;51.198;6.010;2023-04-15T00:52:34;7.97;;;3.63;;
70975;SDS011;58635;51.198;6.010;2023-04-15T00:55:00;7.18;;;3.60;;
70975;SDS011;58635;51.198;6.010;2023-04-15T00:57:26;6.95;;;3.92;;
70975;SDS011;58635;51.198;6.010;2023-04-15T00:59:53;6.88;;;3.63;;
70975;SDS011;58635;51.198;6.010;2023-04-15T01:02:20;7.55;;;3.40;;
70975;SDS011;58635;51.198;6.010;2023-04-15T01:04:45;7.80;;;3.53;;
70975;SDS011;58635;51.198;6.010;2023-04-15T01:07:11;6.22;;;3.50;;
70975;SDS011;58635;51.198;6.010;2023-04-15T01:09:37;8.68;;;4.10;;
70975;SDS011;58635;51.198;6.010;2023-04-15T01:12:03;8.93;;;4.03;;
70975;SDS011;58635;51.198;6.010;2023-04-15T01:14:29;5.65;;;3.10;;
70975;SDS011;58635;51.198;6.010;2023-04-15T01:16:55;7.85;;;3.70;;
70975;SDS011;58635;51.198;6.010;2023-04-15T01:19:21;8.48;;;3.92;;
70975;SDS011;58635;51.198;6.010;2023-04-15T01:21:47;8.27;;;3.80;;
70975;SDS011;58635;51.198;6.010;2023-04-15T01:24:12;10.13;;;3.75;;
70975;SDS011;58635;51.198;6.010;2023-04-15T01:26:41;8.25;;;3.90;;
70975;SDS011;58635;51.198;6.010;2023-04-15T01:29:07;6.32;;;3.55;;
70975;SDS011;58635;51.198;6.010;2023-04-15T01:31:33;8.40;;;4.13;;
70975;SDS011;58635;51.198;6.010;2023-04-15T01:33:58;6.78;;;3.53;;
70975;SDS011;58635;51.198;6.010;2023-04-15T01:36:23;8.57;;;3.95;;
70975;SDS011;58635;51.198;6.010;2023-04-15T01:38:49;7.63;;;3.67;;
70975;SDS011;58635;51.198;6.010;2023-04-15T01:41:15;5.88;;;3.60;;
70975;SDS011;58635;51.198;6.010;2023-04-15T01:43:41;6.63;;;3.83;;
70975;SDS011;58635;51.198;6.010;2023-04-15T01:46:06;8.10;;;3.95;;
70975;SDS011;58635;51.198;6.010;2023-04-15T01:48:32;8.38;;;4.50;;
70975;SDS011;58635;51.198;6.010;2023-04-15T01:50:58;7.80;;;3.72;;
70975;SDS011;58635;51.198;6.010;2023-04-15T01:53:24;8.68;;;4.28;;
70975;SDS011;58635;51.198;6.010;2023-04-15T01:55:50;7.93;;;3.88;;
70975;SDS011;58635;51.198;6.010;2023-04-15T01:58:16;8.63;;;4.00;;
70975;SDS011;58635;51.198;6.010;2023-04-15T02:00:44;7.18;;;3.80;;
70975;SDS011;58635;51.198;6.010;2023-04-15T02:03:10;6.85;;;3.95;;
70975;SDS011;58635;51.198;6.010;2023-04-15T02:05:35;8.48;;;3.75;;
70975;SDS011;58635;51.198;6.010;2023-04-15T02:08:01;7.40;;;4.03;;
70975;SDS011;58635;51.198;6.010;2023-04-15T02:10:26;6.50;;;3.40;;
70975;SDS011;58635;51.198;6.010;2023-04-15T02:12:52;7.40;;;4.28;;
70975;SDS011;58635;51.198;6.010;2023-04-15T02:15:18;11.98;;;4.38;;
70975;SDS011;58635;51.198;6.010;2023-04-15T02:17:44;7.20;;;3.88;;
70975;SDS011;58635;51.198;6.010;2023-04-15T02:20:14;6.25;;;4.13;;
70975;SDS011;58635;51.198;6.010;2023-04-15T02:22:40;6.68;;;3.90;;
70975;SDS011;58635;51.198;6.010;2023-04-15T02:25:06;8.85;;;4.43;;
70975;SDS011;58635;51.198;6.010;2023-04-15T02:27:32;8.90;;;4.72;;
70975;SDS011;58635;51.198;6.010;2023-04-15T02:29:58;9.73;;;4.28;;
70975;SDS011;58635;51.198;6.010;2023-04-15T02:32:23;8.48;;;4.15;;
70975;SDS011;58635;51.198;6.010;2023-04-15T02:34:48;9.07;;;4.38;;
70975;SDS011;58635;51.198;6.010;2023-04-15T02:37:14;8.10;;;4.32;;
70975;SDS011;58635;51.198;6.010;2023-04-15T02:39:41;7.85;;;4.25;;
70975;SDS011;58635;51.198;6.010;2023-04-15T02:42:06;8.10;;;4.30;;
70975;SDS011;58635;51.198;6.010;2023-04-15T02:44:32;7.47;;;4.13;;
70975;SDS011;58635;51.198;6.010;2023-04-15T02:46:59;6.40;;;4.13;;
70975;SDS011;58635;51.198;6.010;2023-04-15T02:49:24;10.32;;;4.45;;
70975;SDS011;58635;51.198;6.010;2023-04-15T02:51:50;6.60;;;4.35;;
70975;SDS011;58635;51.198;6.010;2023-04-15T02:54:16;7.00;;;3.75;;
70975;SDS011;58635;51.198;6.010;2023-04-15T02:56:42;7.57;;;4.78;;
70975;SDS011;58635;51.198;6.010;2023-04-15T02:59:07;8.52;;;4.20;;
70975;SDS011;58635;51.198;6.010;2023-04-15T03:01:33;8.82;;;4.20;;
70975;SDS011;58635;51.198;6.010;2023-04-15T03:03:58;7.72;;;4.35;;
70975;SDS011;58635;51.198;6.010;2023-04-15T03:06:24;7.72;;;4.35;;
70975;SDS011;58635;51.198;6.010;2023-04-15T03:08:49;8.57;;;4.57;;
70975;SDS011;58635;51.198;6.010;2023-04-15T03:11:14;8.02;;;4.78;;
70975;SDS011;58635;51.198;6.010;2023-04-15T03:13:41;7.50;;;4.60;;
70975;SDS011;58635;51.198;6.010;2023-04-15T03:16:07;11.10;;;4.47;;
70975;SDS011;58635;51.198;6.010;2023-04-15T03:18:33;10.95;;;4.97;;
70975;SDS011;58635;51.198;6.010;2023-04-15T03:20:58;8.95;;;4.90;;
70975;SDS011;58635;51.198;6.010;2023-04-15T03:23:24;9.90;;;5.22;;
70975;SDS011;58635;51.198;6.010;2023-04-15T03:25:49;8.73;;;5.00;;
70975;SDS011;58635;51.198;6.010;2023-04-15T03:28:15;9.57;;;5.65;;
70975;SDS011;58635;51.198;6.010;2023-04-15T03:30:40;10.63;;;4.90;;
70975;SDS011;58635;51.198;6.010;2023-04-15T03:33:06;10.68;;;5.45;;
70975;SDS011;58635;51.198;6.010;2023-04-15T03:35:32;10.52;;;5.50;;
70975;SDS011;58635;51.198;6.010;2023-04-15T03:37:58;9.45;;;5.22;;
70975;SDS011;58635;51.198;6.010;2023-04-15T03:40:23;11.48;;;5.68;;
70975;SDS011;58635;51.198;6.010;2023-04-15T03:42:49;9.73;;;5.32;;
70975;SDS011;58635;51.198;6.010;2023-04-15T03:45:14;10.27;;;5.82;;
70975;SDS011;58635;51.198;6.010;2023-04-15T03:47:40;9.82;;;5.10;;
70975;SDS011;58635;51.198;6.010;2023-04-15T03:50:06;10.38;;;5.57;;
70975;SDS011;58635;51.198;6.010;2023-04-15T03:52:32;10.18;;;6.13;;
70975;SDS011;58635;51.198;6.010;2023-04-15T03:54:57;7.80;;;5.50;;
70975;SDS011;58635;51.198;6.010;2023-04-15T03:57:23;10.43;;;5.68;;
70975;SDS011;58635;51.198;6.010;2023-04-15T03:59:48;8.95;;;6.10;;
70975;SDS011;58635;51.198;6.010;2023-04-15T04:02:14;12.35;;;5.82;;
70975;SDS011;58635;51.198;6.010;2023-04-15T04:04:39;8.68;;;5.80;;
70975;SDS011;58635;51.198;6.010;2023-04-15T04:07:05;11.63;;;5.70;;
70975;SDS011;58635;51.198;6.010;2023-04-15T04:09:32;8.80;;;5.95;;
70975;SDS011;58635;51.198;6.010;2023-04-15T04:11:58;9.82;;;5.93;;
70975;SDS011;58635;51.198;6.010;2023-04-15T04:14:23;9.93;;;6.25;;
70975;SDS011;58635;51.198;6.010;2023-04-15T04:16:53;10.77;;;5.82;;
70975;SDS011;58635;51.198;6.010;2023-04-15T04:19:19;12.18;;;6.30;;
70975;SDS011;58635;51.198;6.010;2023-04-15T04:21:44;11.80;;;7.00;;
70975;SDS011;58635;51.198;6.010;2023-04-15T04:24:10;10.98;;;6.97;;
70975;SDS011;58635;51.198;6.010;2023-04-15T04:26:36;10.05;;;6.55;;
70975;SDS011;58635;51.198;6.010;2023-04-15T04:29:01;13.07;;;7.65;;
70975;SDS011;58635;51.198;6.010;2023-04-15T04:31:27;12.57;;;7.45;;
70975;SDS011;58635;51.198;6.010;2023-04-15T04:33:52;11.85;;;7.00;;
70975;SDS011;58635;51.198;6.010;2023-04-15T04:36:17;14.18;;;8.00;;
70975;SDS011;58635;51.198;6.010;2023-04-15T04:38:43;12.23;;;8.50;;
70975;SDS011;58635;51.198;6.010;2023-04-15T04:41:08;11.25;;;8.45;;
70975;SDS011;58635;51.198;6.010;2023-04-15T04:43:34;14.77;;;8.48;;
70975;SDS011;58635;51.198;6.010;2023-04-15T04:45:59;10.63;;;7.85;;
70975;SDS011;58635;51.198;6.010;2023-04-15T04:48:25;12.80;;;9.20;;
70975;SDS011;58635;51.198;6.010;2023-04-15T04:50:51;15.52;;;8.60;;
70975;SDS011;58635;51.198;6.010;2023-04-15T04:53:17;12.57;;;8.32;;
70975;SDS011;58635;51.198;6.010;2023-04-15T04:55:42;15.02;;;9.43;;
70975;SDS011;58635;51.198;6.010;2023-04-15T04:58:07;13.60;;;9.50;;
70975;SDS011;58635;51.198;6.010;2023-04-15T05:00:33;13.63;;;9.63;;
70975;SDS011;58635;51.198;6.010;2023-04-15T05:02:58;13.70;;;9.07;;
70975;SDS011;58635;51.198;6.010;2023-04-15T05:05:24;14.82;;;9.82;;
70975;SDS011;58635;51.198;6.010;2023-04-15T05:07:50;16.95;;;10.00;;
70975;SDS011;58635;51.198;6.010;2023-04-15T05:10:15;16.75;;;9.45;;
70975;SDS011;58635;51.198;6.010;2023-04-15T05:12:42;13.00;;;9.50;;
70975;SDS011;58635;51.198;6.010;2023-04-15T05:15:07;17.33;;;9.75;;
70975;SDS011;58635;51.198;6.010;2023-04-15T05:17:33;13.30;;;9.88;;
70975;SDS011;58635;51.198;6.010;2023-04-15T05:19:59;14.23;;;9.60;;
70975;SDS011;58635;51.198;6.010;2023-04-15T05:22:25;15.20;;;10.05;;
70975;SDS011;58635;51.198;6.010;2023-04-15T05:24:51;14.70;;;9.88;;
70975;SDS011;58635;51.198;6.010;2023-04-15T05:27:16;17.13;;;10.05;;
70975;SDS011;58635;51.198;6.010;2023-04-15T05:29:43;12.45;;;9.75;;
70975;SDS011;58635;51.198;6.010;2023-04-15T05:32:08;14.98;;;10.02;;
70975;SDS011;58635;51.198;6.010;2023-04-15T05:34:34;16.38;;;10.38;;
70975;SDS011;58635;51.198;6.010;2023-04-15T05:36:59;16.80;;;10.50;;
70975;SDS011;58635;51.198;6.010;2023-04-15T05:39:25;15.13;;;10.05;;
70975;SDS011;58635;51.198;6.010;2023-04-15T05:41:50;14.90;;;10.25;;
70975;SDS011;58635;51.198;6.010;2023-04-15T05:44:16;13.60;;;10.48;;
70975;SDS011;58635;51.198;6.010;2023-04-15T05:46:41;15.57;;;10.10;;
70975;SDS011;58635;51.198;6.010;2023-04-15T05:49:07;16.58;;;10.35;;
70975;SDS011;58635;51.198;6.010;2023-04-15T05:51:33;15.32;;;10.52;;
70975;SDS011;58635;51.198;6.010;2023-04-15T05:53:58;15.32;;;10.20;;
70975;SDS011;58635;51.198;6.010;2023-04-15T05:56:23;17.67;;;10.25;;
70975;SDS011;58635;51.198;6.010;2023-04-15T05:58:51;17.13;;;10.77;;
70975;SDS011;58635;51.198;6.010;2023-04-15T06:01:16;16.02;;;9.73;;
70975;SDS011;58635;51.198;6.010;2023-04-15T06:03:41;13.77;;;9.73;;
70975;SDS011;58635;51.198;6.010;2023-04-15T06:06:07;14.68;;;9.77;;
70975;SDS011;58635;51.198;6.010;2023-04-15T06:08:33;15.25;;;9.60;;
70975;SDS011;58635;51.198;6.010;2023-04-15T06:10:59;16.00;;;10.65;;
70975;SDS011;58635;51.198;6.010;2023-04-15T06:13:25;15.30;;;10.88;;
70975;SDS011;58635;51.198;6.010;2023-04-15T06:15:51;15.27;;;9.82;;
70975;SDS011;58635;51.198;6.010;2023-04-15T06:18:17;14.93;;;9.73;;
70975;SDS011;58635;51.198;6.010;2023-04-15T06:20:42;14.13;;;10.55;;
70975;SDS011;58635;51.198;6.010;2023-04-15T06:23:08;16.13;;;10.40;;
70975;SDS011;58635;51.198;6.010;2023-04-15T06:25:33;16.55;;;10.85;;
70975;SDS011;58635;51.198;6.010;2023-04-15T06:27:59;16.88;;;10.73;;
70975;SDS011;58635;51.198;6.010;2023-04-15T06:30:25;16.38;;;11.30;;
70975;SDS011;58635;51.198;6.010;2023-04-15T06:32:50;15.02;;;10.35;;
70975;SDS011;58635;51.198;6.010;2023-04-15T06:35:15;17.25;;;10.70;;
70975;SDS011;58635;51.198;6.010;2023-04-15T06:37:41;15.18;;;10.00;;
70975;SDS011;58635;51.198;6.010;2023-04-15T06:40:07;15.07;;;10.20;;
70975;SDS011;58635;51.198;6.010;2023-04-15T06:42:34;18.30;;;11.32;;
70975;SDS011;58635;51.198;6.010;2023-04-15T06:45:00;15.10;;;10.43;;
70975;SDS011;58635;51.198;6.010;2023-04-15T06:47:26;15.23;;;10.50;;
70975;SDS011;58635;51.198;6.010;2023-04-15T06:49:51;14.43;;;9.77;;
70975;SDS011;58635;51.198;6.010;2023-04-15T06:52:17;14.80;;;10.32;;
70975;SDS011;58635;51.198;6.010;2023-04-15T06:54:42;13.73;;;10.68;;
70975;SDS011;58635;51.198;6.010;2023-04-15T06:57:08;14.93;;;10.25;;
70975;SDS011;58635;51.198;6.010;2023-04-15T06:59:33;14.25;;;10.13;;
70975;SDS011;58635;51.198;6.010;2023-04-15T07:01:59;14.07;;;10.02;;
70975;SDS011;58635;51.198;6.010;2023-04-15T07:04:24;13.18;;;10.10;;
70975;SDS011;58635;51.198;6.010;2023-04-15T07:06:50;12.90;;;8.73;;
70975;SDS011;58635;51.198;6.010;2023-04-15T07:09:15;13.98;;;9.93;;
70975;SDS011;58635;51.198;6.010;2023-04-15T07:11:41;12.90;;;9.02;;
70975;SDS011;58635;51.198;6.010;2023-04-15T07:14:06;13.45;;;9.02;;
70975;SDS011;58635;51.198;6.010;2023-04-15T07:16:31;11.45;;;9.30;;
70975;SDS011;58635;51.198;6.010;2023-04-15T07:18:57;15.32;;;9.52;;
70975;SDS011;58635;51.198;6.010;2023-04-15T07:21:23;11.75;;;8.20;;
70975;SDS011;58635;51.198;6.010;2023-04-15T07:23:48;11.45;;;8.27;;
70975;SDS011;58635;51.198;6.010;2023-04-15T07:26:14;11.40;;;8.20;;
70975;SDS011;58635;51.198;6.010;2023-04-15T07:28:39;10.18;;;7.88;;
70975;SDS011;58635;51.198;6.010;2023-04-15T07:31:05;11.75;;;8.55;;
70975;SDS011;58635;51.198;6.010;2023-04-15T07:33:31;10.32;;;8.07;;
70975;SDS011;58635;51.198;6.010;2023-04-15T07:35:56;12.82;;;7.65;;
70975;SDS011;58635;51.198;6.010;2023-04-15T07:38:22;12.05;;;7.65;;
70975;SDS011;58635;51.198;6.010;2023-04-15T07:40:47;10.15;;;7.55;;
70975;SDS011;58635;51.198;6.010;2023-04-15T07:43:13;10.77;;;8.27;;
70975;SDS011;58635;51.198;6.010;2023-04-15T07:45:39;10.27;;;8.07;;
70975;SDS011;58635;51.198;6.010;2023-04-15T07:48:05;12.10;;;7.88;;
70975;SDS011;58635;51.198;6.010;2023-04-15T07:50:30;9.95;;;7.55;;
70975;SDS011;58635;51.198;6.010;2023-04-15T07:52:56;11.68;;;7.65;;
70975;SDS011;58635;51.198;6.010;2023-04-15T07:55:21;9.75;;;7.55;;
70975;SDS011;58635;51.198;6.010;2023-04-15T07:57:48;10.23;;;8.23;;
70975;SDS011;58635;51.198;6.010;2023-04-15T08:00:13;10.30;;;7.35;;
70975;SDS011;58635;51.198;6.010;2023-04-15T08:02:40;10.20;;;7.10;;
70975;SDS011;58635;51.198;6.010;2023-04-15T08:05:06;10.82;;;7.30;;
70975;SDS011;58635;51.198;6.010;2023-04-15T08:07:33;11.07;;;7.15;;
70975;SDS011;58635;51.198;6.010;2023-04-15T08:09:58;12.10;;;8.13;;
70975;SDS011;58635;51.198;6.010;2023-04-15T08:12:24;9.70;;;6.93;;
70975;SDS011;58635;51.198;6.010;2023-04-15T08:14:49;9.38;;;6.57;;
70975;SDS011;58635;51.198;6.010;2023-04-15T08:17:16;10.52;;;7.45;;
70975;SDS011;58635;51.198;6.010;2023-04-15T08:19:41;9.77;;;7.00;;
70975;SDS011;58635;51.198;6.010;2023-04-15T08:22:07;13.30;;;7.18;;
70975;SDS011;58635;51.198;6.010;2023-04-15T08:24:32;9.60;;;7.22;;
70975;SDS011;58635;51.198;6.010;2023-04-15T08:26:58;8.55;;;6.78;;
70975;SDS011;58635;51.198;6.010;2023-04-15T08:29:24;10.18;;;6.70;;
70975;SDS011;58635;51.198;6.010;2023-04-15T08:31:49;9.15;;;6.70;;
70975;SDS011;58635;51.198;6.010;2023-04-15T08:34:15;9.05;;;6.30;;
70975;SDS011;58635;51.198;6.010;2023-04-15T08:36:41;8.68;;;7.05;;
70975;SDS011;58635;51.198;6.010;2023-04-15T08:39:06;7.43;;;6.03;;
70975;SDS011;58635;51.198;6.010;2023-04-15T08:41:45;9.65;;;5.95;;
70975;SDS011;58635;51.198;6.010;2023-04-15T08:44:12;9.75;;;5.75;;
70975;SDS011;58635;51.198;6.010;2023-04-15T08:46:38;7.90;;;5.18;;
70975;SDS011;58635;51.198;6.010;2023-04-15T08:49:07;7.72;;;5.55;;
70975;SDS011;58635;51.198;6.010;2023-04-15T08:51:35;8.27;;;6.32;;
70975;SDS011;58635;51.198;6.010;2023-04-15T08:54:02;7.85;;;5.53;;
70975;SDS011;58635;51.198;6.010;2023-04-15T08:56:29;7.05;;;5.97;;
70975;SDS011;58635;51.198;6.010;2023-04-15T08:58:58;16.67;;;6.63;;
70975;SDS011;58635;51.198;6.010;2023-04-15T09:01:24;7.03;;;5.38;;
70975;SDS011;58635;51.198;6.010;2023-04-15T09:03:50;9.20;;;5.70;;
70975;SDS011;58635;51.198;6.010;2023-04-15T09:06:18;7.43;;;5.32;;
70975;SDS011;58635;51.198;6.010;2023-04-15T09:08:45;8.55;;;4.75;;
70975;SDS011;58635;51.198;6.010;2023-04-15T09:11:10;7.82;;;4.95;;
70975;SDS011;58635;51.198;6.010;2023-04-15T09:13:36;7.53;;;4.55;;
70975;SDS011;58635;51.198;6.010;2023-04-15T09:16:02;7.28;;;4.95;;
70975;SDS011;58635;51.198;6.010;2023-04-15T09:18:31;8.02;;;4.72;;
70975;SDS011;58635;51.198;6.010;2023-04-15T09:21:05;7.82;;;4.90;;
70975;SDS011;58635;51.198;6.010;2023-04-15T09:23:39;7.38;;;4.72;;
70975;SDS011;58635;51.198;6.010;2023-04-15T09:26:43;5.70;;;4.35;;
70975;SDS011;58635;51.198;6.010;2023-04-15T09:29:09;8.55;;;4.93;;
70975;SDS011;58635;51.198;6.010;2023-04-15T09:31:38;6.38;;;4.40;;
70975;SDS011;58635;51.198;6.010;2023-04-15T09:34:05;5.88;;;3.83;;
70975;SDS011;58635;51.198;6.010;2023-04-15T09:36:40;7.50;;;3.35;;
70975;SDS011;58635;51.198;6.010;2023-04-15T09:39:16;5.13;;;3.22;;
70975;SDS011;58635;51.198;6.010;2023-04-15T09:41:42;4.68;;;3.15;;
70975;SDS011;58635;51.198;6.010;2023-04-15T09:44:24;6.75;;;4.85;;
70975;SDS011;58635;51.198;6.010;2023-04-15T09:46:50;6.20;;;3.53;;
70975;SDS011;58635;51.198;6.010;2023-04-15T09:49:16;4.95;;;3.30;;
70975;SDS011;58635;51.198;6.010;2023-04-15T09:51:42;7.57;;;3.80;;
70975;SDS011;58635;51.198;6.010;2023-04-15T09:54:08;5.85;;;3.40;;
70975;SDS011;58635;51.198;6.010;2023-04-15T09:56:34;5.88;;;4.00;;
70975;SDS011;58635;51.198;6.010;2023-04-15T09:59:09;6.90;;;3.53;;
70975;SDS011;58635;51.198;6.010;2023-04-15T10:01:34;6.10;;;3.00;;
70975;SDS011;58635;51.198;6.010;2023-04-15T10:04:03;5.47;;;3.10;;
70975;SDS011;58635;51.198;6.010;2023-04-15T10:06:29;4.80;;;2.78;;
70975;SDS011;58635;51.198;6.010;2023-04-15T10:08:58;4.63;;;2.70;;
70975;SDS011;58635;51.198;6.010;2023-04-15T10:11:26;5.80;;;3.20;;
70975;SDS011;58635;51.198;6.010;2023-04-15T10:13:53;4.00;;;2.78;;
70975;SDS011;58635;51.198;6.010;2023-04-15T10:16:20;6.15;;;3.13;;
70975;SDS011;58635;51.198;6.010;2023-04-15T10:18:50;5.93;;;3.00;;
70975;SDS011;58635;51.198;6.010;2023-04-15T10:21:19;4.65;;;2.78;;
70975;SDS011;58635;51.198;6.010;2023-04-15T10:23:46;4.72;;;2.95;;
70975;SDS011;58635;51.198;6.010;2023-04-15T10:26:12;5.63;;;3.08;;
70975;SDS011;58635;51.198;6.010;2023-04-15T10:28:42;6.03;;;3.30;;
70975;SDS011;58635;51.198;6.010;2023-04-15T10:31:08;4.75;;;3.10;;
70975;SDS011;58635;51.198;6.010;2023-04-15T10:33:36;3.97;;;2.60;;
70975;SDS011;58635;51.198;6.010;2023-04-15T10:36:03;4.43;;;2.80;;
70975;SDS011;58635;51.198;6.010;2023-04-15T10:38:40;5.20;;;3.08;;
70975;SDS011;58635;51.198;6.010;2023-04-15T10:41:20;3.92;;;2.80;;
70975;SDS011;58635;51.198;6.010;2023-04-15T10:46:36;4.22;;;3.25;;
70975;SDS011;58635;51.198;6.010;2023-04-15T10:49:09;5.00;;;3.55;;
70975;SDS011;58635;51.198;6.010;2023-04-15T10:51:40;5.70;;;3.50;;
70975;SDS011;58635;51.198;6.010;2023-04-15T10:54:16;5.18;;;3.40;;
70975;SDS011;58635;51.198;6.010;2023-04-15T10:59:28;5.32;;;3.63;;
70975;SDS011;58635;51.198;6.010;2023-04-15T11:02:00;4.68;;;3.38;;
70975;SDS011;58635;51.198;6.010;2023-04-15T11:10:49;7.05;;;3.70;;
70975;SDS011;58635;51.198;6.010;2023-04-15T11:15:28;5.30;;;3.40;;
70975;SDS011;58635;51.198;6.010;2023-04-15T11:20:47;7.45;;;4.10;;
70975;SDS011;58635;51.198;6.010;2023-04-15T11:23:23;5.68;;;3.75;;
70975;SDS011;58635;51.198;6.010;2023-04-15T11:25:56;5.85;;;3.38;;
70975;SDS011;58635;51.198;6.010;2023-04-15T11:28:26;6.43;;;3.72;;
70975;SDS011;58635;51.198;6.010;2023-04-15T11:30:54;4.82;;;3.42;;
70975;SDS011;58635;51.198;6.010;2023-04-15T11:33:20;4.13;;;3.10;;
70975;SDS011;58635;51.198;6.010;2023-04-15T11:35:47;5.07;;;3.10;;
70975;SDS011;58635;51.198;6.010;2023-04-15T11:38:12;4.88;;;3.35;;
70975;SDS011;58635;51.198;6.010;2023-04-15T11:40:39;4.47;;;3.00;;
70975;SDS011;58635;51.198;6.010;2023-04-15T11:43:09;4.03;;;2.85;;
70975;SDS011;58635;51.198;6.010;2023-04-15T11:45:36;3.97;;;2.80;;
70975;SDS011;58635;51.198;6.010;2023-04-15T11:48:06;4.53;;;2.70;;
70975;SDS011;58635;51.198;6.010;2023-04-15T11:50:32;5.25;;;2.83;;
70975;SDS011;58635;51.198;6.010;2023-04-15T11:52:59;5.38;;;3.13;;
70975;SDS011;58635;51.198;6.010;2023-04-15T11:55:26;6.13;;;3.13;;
70975;SDS011;58635;51.198;6.010;2023-04-15T11:58:09;5.38;;;2.97;;
70975;SDS011;58635;51.198;6.010;2023-04-15T12:00:46;6.18;;;3.70;;
70975;SDS011;58635;51.198;6.010;2023-04-15T12:08:55;5.40;;;3.67;;
70975;SDS011;58635;51.198;6.010;2023-04-15T12:11:55;5.60;;;3.08;;
70975;SDS011;58635;51.198;6.010;2023-04-15T12:14:29;5.15;;;3.20;;
70975;SDS011;58635;51.198;6.010;2023-04-15T12:16:57;5.10;;;3.03;;
70975;SDS011;58635;51.198;6.010;2023-04-15T12:22:00;8.45;;;3.28;;
70975;SDS011;58635;51.198;6.010;2023-04-15T12:24:28;6.15;;;3.33;;
70975;SDS011;58635;51.198;6.010;2023-04-15T12:26:56;5.18;;;3.20;;
70975;SDS011;58635;51.198;6.010;2023-04-15T12:29:26;5.97;;;2.80;;
70975;SDS011;58635;51.198;6.010;2023-04-15T12:31:54;3.88;;;2.50;;
70975;SDS011;58635;51.198;6.010;2023-04-15T12:34:42;5.30;;;2.88;;
70975;SDS011;58635;51.198;6.010;2023-04-15T12:37:10;3.53;;;2.42;;
70975;SDS011;58635;51.198;6.010;2023-04-15T12:39:38;4.10;;;2.80;;
70975;SDS011;58635;51.198;6.010;2023-04-15T12:42:05;4.03;;;2.55;;
70975;SDS011;58635;51.198;6.010;2023-04-15T12:44:32;4.35;;;2.65;;
70975;SDS011;58635;51.198;6.010;2023-04-15T12:46:58;4.50;;;2.42;;
70975;SDS011;58635;51.198;6.010;2023-04-15T12:49:24;4.63;;;2.65;;
70975;SDS011;58635;51.198;6.010;2023-04-15T12:51:54;3.22;;;2.08;;
70975;SDS011;58635;51.198;6.010;2023-04-15T12:54:21;4.28;;;2.47;;
70975;SDS011;58635;51.198;6.010;2023-04-15T12:56:47;4.00;;;2.70;;
70975;SDS011;58635;51.198;6.010;2023-04-15T12:59:14;4.85;;;2.40;;
70975;SDS011;58635;51.198;6.010;2023-04-15T13:01:40;3.70;;;2.65;;
70975;SDS011;58635;51.198;6.010;2023-04-15T13:04:06;12.55;;;2.92;;
70975;SDS011;58635;51.198;6.010;2023-04-15T13:06:32;4.30;;;2.50;;
70975;SDS011;58635;51.198;6.010;2023-04-15T13:09:00;4.40;;;2.88;;
70975;SDS011;58635;51.198;6.010;2023-04-15T13:11:27;4.60;;;2.63;;
70975;SDS011;58635;51.198;6.010;2023-04-15T13:13:55;4.13;;;2.65;;
70975;SDS011;58635;51.198;6.010;2023-04-15T13:16:21;4.18;;;2.45;;
70975;SDS011;58635;51.198;6.010;2023-04-15T13:18:47;5.20;;;2.75;;
70975;SDS011;58635;51.198;6.010;2023-04-15T13:21:13;4.00;;;2.40;;
70975;SDS011;58635;51.198;6.010;2023-04-15T13:23:40;4.35;;;2.40;;
70975;SDS011;58635;51.198;6.010;2023-04-15T13:26:06;3.22;;;2.00;;
70975;SDS011;58635;51.198;6.010;2023-04-15T13:28:31;2.97;;;1.70;;
70975;SDS011;58635;51.198;6.010;2023-04-15T13:30:56;3.08;;;1.95;;
70975;SDS011;58635;51.198;6.010;2023-04-15T13:33:22;3.60;;;1.80;;
70975;SDS011;58635;51.198;6.010;2023-04-15T13:35:47;3.60;;;2.20;;
70975;SDS011;58635;51.198;6.010;2023-04-15T13:38:12;4.10;;;2.13;;
70975;SDS011;58635;51.198;6.010;2023-04-15T13:40:38;3.33;;;2.15;;
70975;SDS011;58635;51.198;6.010;2023-04-15T13:43:03;3.50;;;2.00;;
70975;SDS011;58635;51.198;6.010;2023-04-15T13:45:29;4.18;;;1.70;;
70975;SDS011;58635;51.198;6.010;2023-04-15T13:47:55;3.38;;;2.10;;
70975;SDS011;58635;51.198;6.010;2023-04-15T13:50:21;3.60;;;1.88;;
70975;SDS011;58635;51.198;6.010;2023-04-15T13:52:46;4.15;;;2.00;;
70975;SDS011;58635;51.198;6.010;2023-04-15T13:55:12;6.03;;;1.80;;
70975;SDS011;58635;51.198;6.010;2023-04-15T13:57:37;3.50;;;1.80;;
70975;SDS011;58635;51.198;6.010;2023-04-15T14:00:03;2.97;;;1.60;;
70975;SDS011;58635;51.198;6.010;2023-04-15T14:02:29;5.15;;;1.80;;
70975;SDS011;58635;51.198;6.010;2023-04-15T14:04:54;4.57;;;2.00;;
70975;SDS011;58635;51.198;6.010;2023-04-15T14:07:20;4.07;;;2.00;;
70975;SDS011;58635;51.198;6.010;2023-04-15T14:09:47;3.20;;;1.80;;
70975;SDS011;58635;51.198;6.010;2023-04-15T14:12:12;3.53;;;2.40;;
70975;SDS011;58635;51.198;6.010;2023-04-15T14:14:37;3.08;;;2.08;;
70975;SDS011;58635;51.198;6.010;2023-04-15T14:17:03;3.13;;;2.10;;
70975;SDS011;58635;51.198;6.010;2023-04-15T14:19:29;5.68;;;1.70;;
70975;SDS011;58635;51.198;6.010;2023-04-15T14:21:56;2.42;;;1.50;;
70975;SDS011;58635;51.198;6.010;2023-04-15T14:24:21;4.05;;;1.70;;
70975;SDS011;58635;51.198;6.010;2023-04-15T14:26:46;3.17;;;2.35;;
70975;SDS011;58635;51.198;6.010;2023-04-15T14:29:12;3.60;;;1.80;;
70975;SDS011;58635;51.198;6.010;2023-04-15T14:31:37;4.88;;;1.90;;
70975;SDS011;58635;51.198;6.010;2023-04-15T14:34:04;3.25;;;1.70;;
70975;SDS011;58635;51.198;6.010;2023-04-15T14:36:30;2.80;;;1.58;;
70975;SDS011;58635;51.198;6.010;2023-04-15T14:38:56;1.85;;;1.23;;
70975;SDS011;58635;51.198;6.010;2023-04-15T14:41:22;3.50;;;1.75;;
70975;SDS011;58635;51.198;6.010;2023-04-15T14:43:47;2.97;;;1.60;;
70975;SDS011;58635;51.198;6.010;2023-04-15T14:46:13;3.28;;;1.70;;
70975;SDS011;58635;51.198;6.010;2023-04-15T14:48:38;3.55;;;1.52;;
70975;SDS011;58635;51.198;6.010;2023-04-15T14:51:05;2.72;;;1.40;;
70975;SDS011;58635;51.198;6.010;2023-04-15T14:53:30;2.60;;;1.27;;
70975;SDS011;58635;51.198;6.010;2023-04-15T14:55:56;3.15;;;1.25;;
70975;SDS011;58635;51.198;6.010;2023-04-15T14:58:21;4.03;;;2.00;;
70975;SDS011;58635;51.198;6.010;2023-04-15T15:00:47;4.38;;;1.80;;
70975;SDS011;58635;51.198;6.010;2023-04-15T15:03:12;7.55;;;2.47;;
70975;SDS011;58635;51.198;6.010;2023-04-15T15:05:42;4.40;;;1.90;;